Terminal Aerodrome Forecast
Issued by NWS

Home | Current Version | Previous Version | Text Only | Print | Product List | Glossary Off
Versions: 1 2 3 4 5 6 7 8 9 10 11 12 13

000
FTUS43 KMPX 030539
TAFAXN
TAF
KAXN 030539Z 0306/0406 16015G22KT P6SM SCT060 OVC120
     FM031100 19007KT 4SM BR OVC015
     FM031500 21004KT 5SM BR VCSH BKN008 OVC015
     FM032000 32008KT P6SM BKN035=

USA.gov is the U.S. government's official web portal to all federal, state and local government web resources and services.